sensor_id;sensor_type;location;lat;lon;timestamp;pressure;altitude;pressure_sealevel;temperature;humidity
62952;BME280;52163;52.212;-1.002;2022-11-20T00:00:28;100000.66;;;5.84;88.37
62952;BME280;52163;52.212;-1.002;2022-11-20T00:02:53;99993.48;;;5.84;88.41
62952;BME280;52163;52.212;-1.002;2022-11-20T00:05:19;99995.08;;;5.87;88.64
62952;BME280;52163;52.212;-1.002;2022-11-20T00:07:44;99995.16;;;5.93;88.72
62952;BME280;52163;52.212;-1.002;2022-11-20T00:10:10;99982.17;;;5.96;88.61
62952;BME280;52163;52.212;-1.002;2022-11-20T00:12:35;99984.37;;;5.98;88.11
62952;BME280;52163;52.212;-1.002;2022-11-20T00:15:01;99985.14;;;5.97;87.86
62952;BME280;52163;52.212;-1.002;2022-11-20T00:17:26;99988.83;;;5.96;87.88
62952;BME280;52163;52.212;-1.002;2022-11-20T00:19:51;99992.00;;;5.93;87.45
62952;BME280;52163;52.212;-1.002;2022-11-20T00:22:17;99992.88;;;5.89;87.61
62952;BME280;52163;52.212;-1.002;2022-11-20T00:24:42;99987.36;;;5.87;87.99
62952;BME280;52163;52.212;-1.002;2022-11-20T00:27:07;99984.16;;;5.88;88.00
62952;BME280;52163;52.212;-1.002;2022-11-20T00:29:33;99976.95;;;5.85;87.80
62952;BME280;52163;52.212;-1.002;2022-11-20T00:31:58;99976.86;;;5.80;87.66
62952;BME280;52163;52.212;-1.002;2022-11-20T00:34:23;99971.31;;;5.78;88.05
62952;BME280;52163;52.212;-1.002;2022-11-20T00:36:49;99964.66;;;5.78;88.13
62952;BME280;52163;52.212;-1.002;2022-11-20T00:39:14;99960.27;;;5.78;88.20
62952;BME280;52163;52.212;-1.002;2022-11-20T00:41:39;99949.81;;;5.80;88.40
62952;BME280;52163;52.212;-1.002;2022-11-20T00:44:05;99944.18;;;5.85;88.55
62952;BME280;52163;52.212;-1.002;2022-11-20T00:46:30;99942.50;;;5.90;88.63
62952;BME280;52163;52.212;-1.002;2022-11-20T00:48:56;99943.17;;;5.91;88.14
62952;BME280;52163;52.212;-1.002;2022-11-20T00:51:23;99940.98;;;5.93;88.24
62952;BME280;52163;52.212;-1.002;2022-11-20T00:53:49;99942.89;;;5.93;88.12
62952;BME280;52163;52.212;-1.002;2022-11-20T00:56:17;99941.12;;;5.93;87.92
62952;BME280;52163;52.212;-1.002;2022-11-20T00:58:45;99938.73;;;5.95;88.02
62952;BME280;52163;52.212;-1.002;2022-11-20T01:03:39;99932.23;;;6.03;88.28
62952;BME280;52163;52.212;-1.002;2022-11-20T01:06:14;99926.89;;;6.09;88.19
62952;BME280;52163;52.212;-1.002;2022-11-20T01:08:40;99922.60;;;6.14;87.88
62952;BME280;52163;52.212;-1.002;2022-11-20T01:11:08;99917.41;;;6.16;87.62
62952;BME280;52163;52.212;-1.002;2022-11-20T01:13:34;99915.42;;;6.17;87.47
62952;BME280;52163;52.212;-1.002;2022-11-20T01:16:18;99907.90;;;6.17;87.40
62952;BME280;52163;52.212;-1.002;2022-11-20T01:18:45;99909.25;;;6.18;87.47
62952;BME280;52163;52.212;-1.002;2022-11-20T01:21:17;99906.69;;;6.20;87.64
62952;BME280;52163;52.212;-1.002;2022-11-20T01:23:45;99907.38;;;6.20;87.36
62952;BME280;52163;52.212;-1.002;2022-11-20T01:26:13;99904.65;;;6.22;87.43
62952;BME280;52163;52.212;-1.002;2022-11-20T01:28:40;99903.43;;;6.21;87.28
62952;BME280;52163;52.212;-1.002;2022-11-20T01:33:39;99908.44;;;6.17;87.22
62952;BME280;52163;52.212;-1.002;2022-11-20T01:36:05;99903.86;;;6.14;87.25
62952;BME280;52163;52.212;-1.002;2022-11-20T01:38:31;99900.91;;;6.13;87.32
62952;BME280;52163;52.212;-1.002;2022-11-20T01:40:56;99900.20;;;6.13;87.49
62952;BME280;52163;52.212;-1.002;2022-11-20T01:43:22;99890.67;;;6.15;87.70
62952;BME280;52163;52.212;-1.002;2022-11-20T01:48:20;99880.27;;;6.18;88.23
62952;BME280;52163;52.212;-1.002;2022-11-20T01:50:48;99879.67;;;6.17;88.16
62952;BME280;52163;52.212;-1.002;2022-11-20T01:53:17;99875.67;;;6.16;88.21
62952;BME280;52163;52.212;-1.002;2022-11-20T01:55:47;99872.69;;;6.16;88.42
62952;BME280;52163;52.212;-1.002;2022-11-20T01:58:15;99873.31;;;6.17;88.76
62952;BME280;52163;52.212;-1.002;2022-11-20T02:00:41;99871.98;;;6.19;88.81
62952;BME280;52163;52.212;-1.002;2022-11-20T02:03:09;99866.61;;;6.21;88.85
62952;BME280;52163;52.212;-1.002;2022-11-20T02:05:41;99860.79;;;6.25;89.03
62952;BME280;52163;52.212;-1.002;2022-11-20T02:08:08;99857.16;;;6.28;88.99
62952;BME280;52163;52.212;-1.002;2022-11-20T02:10:34;99861.39;;;6.31;88.90
62952;BME280;52163;52.212;-1.002;2022-11-20T02:12:59;99858.20;;;6.31;88.67
62952;BME280;52163;52.212;-1.002;2022-11-20T02:15:44;99855.95;;;6.34;88.90
62952;BME280;52163;52.212;-1.002;2022-11-20T02:18:11;99850.15;;;6.38;88.82
62952;BME280;52163;52.212;-1.002;2022-11-20T02:20:40;99841.40;;;6.41;88.98
62952;BME280;52163;52.212;-1.002;2022-11-20T02:25:47;99828.59;;;6.44;88.92
62952;BME280;52163;52.212;-1.002;2022-11-20T02:28:13;99826.23;;;6.39;88.74
62952;BME280;52163;52.212;-1.002;2022-11-20T02:30:38;99820.36;;;6.37;88.90
62952;BME280;52163;52.212;-1.002;2022-11-20T02:33:04;99813.70;;;6.36;89.08
62952;BME280;52163;52.212;-1.002;2022-11-20T02:37:56;99800.58;;;6.36;89.05
62952;BME280;52163;52.212;-1.002;2022-11-20T02:40:22;99792.69;;;6.36;89.38
62952;BME280;52163;52.212;-1.002;2022-11-20T02:42:51;99790.04;;;6.36;89.28
62952;BME280;52163;52.212;-1.002;2022-11-20T02:45:17;99788.84;;;6.35;89.32
62952;BME280;52163;52.212;-1.002;2022-11-20T02:47:42;99786.65;;;6.34;89.44
62952;BME280;52163;52.212;-1.002;2022-11-20T02:50:08;99783.19;;;6.36;89.59
62952;BME280;52163;52.212;-1.002;2022-11-20T02:52:33;99777.66;;;6.38;89.62
62952;BME280;52163;52.212;-1.002;2022-11-20T02:54:59;99773.52;;;6.37;89.29
62952;BME280;52163;52.212;-1.002;2022-11-20T02:57:24;99771.44;;;6.36;89.44
62952;BME280;52163;52.212;-1.002;2022-11-20T02:59:49;99765.77;;;6.34;89.54
62952;BME280;52163;52.212;-1.002;2022-11-20T03:02:15;99759.03;;;6.33;89.56
62952;BME280;52163;52.212;-1.002;2022-11-20T03:04:40;99752.52;;;6.30;89.73
62952;BME280;52163;52.212;-1.002;2022-11-20T03:07:07;99748.55;;;6.29;89.67
62952;BME280;52163;52.212;-1.002;2022-11-20T03:09:33;99743.67;;;6.28;89.80
62952;BME280;52163;52.212;-1.002;2022-11-20T03:11:58;99739.45;;;6.28;89.99
62952;BME280;52163;52.212;-1.002;2022-11-20T03:14:24;99737.45;;;6.30;90.32
62952;BME280;52163;52.212;-1.002;2022-11-20T03:16:49;99737.39;;;6.31;90.19
62952;BME280;52163;52.212;-1.002;2022-11-20T03:19:14;99731.56;;;6.31;90.48
62952;BME280;52163;52.212;-1.002;2022-11-20T03:21:40;99725.85;;;6.30;90.24
62952;BME280;52163;52.212;-1.002;2022-11-20T03:24:06;99711.23;;;6.31;90.44
62952;BME280;52163;52.212;-1.002;2022-11-20T03:26:31;99709.85;;;6.27;90.16
62952;BME280;52163;52.212;-1.002;2022-11-20T03:29:02;99707.45;;;6.23;90.24
62952;BME280;52163;52.212;-1.002;2022-11-20T03:31:34;99705.02;;;6.23;90.53
62952;BME280;52163;52.212;-1.002;2022-11-20T03:34:00;99698.16;;;6.23;90.92
62952;BME280;52163;52.212;-1.002;2022-11-20T03:36:26;99689.38;;;6.23;91.11
62952;BME280;52163;52.212;-1.002;2022-11-20T03:38:54;99689.30;;;6.22;91.06
62952;BME280;52163;52.212;-1.002;2022-11-20T03:41:25;99681.99;;;6.20;91.23
62952;BME280;52163;52.212;-1.002;2022-11-20T03:43:56;99688.13;;;6.21;91.54
62952;BME280;52163;52.212;-1.002;2022-11-20T03:46:23;99679.27;;;6.22;91.74
62952;BME280;52163;52.212;-1.002;2022-11-20T03:48:49;99676.52;;;6.27;92.15
62952;BME280;52163;52.212;-1.002;2022-11-20T03:51:23;99671.48;;;6.30;92.16
62952;BME280;52163;52.212;-1.002;2022-11-20T03:53:50;99663.04;;;6.30;92.11
62952;BME280;52163;52.212;-1.002;2022-11-20T03:56:18;99657.70;;;6.31;92.33
62952;BME280;52163;52.212;-1.002;2022-11-20T03:58:43;99650.77;;;6.30;92.14
62952;BME280;52163;52.212;-1.002;2022-11-20T04:01:11;99646.48;;;6.29;92.05
62952;BME280;52163;52.212;-1.002;2022-11-20T04:03:39;99638.70;;;6.30;92.38
62952;BME280;52163;52.212;-1.002;2022-11-20T04:06:07;99635.54;;;6.29;92.58
62952;BME280;52163;52.212;-1.002;2022-11-20T04:08:33;99628.87;;;6.30;92.51
62952;BME280;52163;52.212;-1.002;2022-11-20T04:11:29;99622.50;;;6.31;92.70
62952;BME280;52163;52.212;-1.002;2022-11-20T04:13:57;99618.14;;;6.30;92.99
62952;BME280;52163;52.212;-1.002;2022-11-20T04:16:24;99613.08;;;6.30;92.95
62952;BME280;52163;52.212;-1.002;2022-11-20T04:18:57;99616.00;;;6.28;92.80
62952;BME280;52163;52.212;-1.002;2022-11-20T04:21:23;99606.98;;;6.25;92.87
62952;BME280;52163;52.212;-1.002;2022-11-20T04:23:50;99603.64;;;6.26;93.02
62952;BME280;52163;52.212;-1.002;2022-11-20T04:26:16;99600.03;;;6.28;93.37
62952;BME280;52163;52.212;-1.002;2022-11-20T04:28:42;99599.13;;;6.28;93.50
62952;BME280;52163;52.212;-1.002;2022-11-20T04:31:11;99596.31;;;6.28;93.59
62952;BME280;52163;52.212;-1.002;2022-11-20T04:33:37;99592.71;;;6.27;93.48
62952;BME280;52163;52.212;-1.002;2022-11-20T04:36:11;99589.92;;;6.27;93.64
62952;BME280;52163;52.212;-1.002;2022-11-20T04:38:37;99581.81;;;6.27;93.86
62952;BME280;52163;52.212;-1.002;2022-11-20T04:41:05;99579.45;;;6.29;94.06
62952;BME280;52163;52.212;-1.002;2022-11-20T04:43:32;99580.00;;;6.32;94.08
62952;BME280;52163;52.212;-1.002;2022-11-20T04:45:58;99573.80;;;6.33;94.25
62952;BME280;52163;52.212;-1.002;2022-11-20T04:48:25;99572.14;;;6.34;94.38
62952;BME280;52163;52.212;-1.002;2022-11-20T04:50:52;99570.36;;;6.34;94.56
62952;BME280;52163;52.212;-1.002;2022-11-20T04:53:18;99567.65;;;6.35;94.68
62952;BME280;52163;52.212;-1.002;2022-11-20T04:55:44;99568.45;;;6.37;94.76
62952;BME280;52163;52.212;-1.002;2022-11-20T04:58:11;99570.89;;;6.38;94.69
62952;BME280;52163;52.212;-1.002;2022-11-20T05:00:36;99569.05;;;6.38;94.80
62952;BME280;52163;52.212;-1.002;2022-11-20T05:03:02;99558.30;;;6.39;94.96
62952;BME280;52163;52.212;-1.002;2022-11-20T05:05:27;99557.04;;;6.41;95.13
62952;BME280;52163;52.212;-1.002;2022-11-20T05:07:55;99560.83;;;6.42;95.36
62952;BME280;52163;52.212;-1.002;2022-11-20T05:10:21;99558.96;;;6.44;95.44
62952;BME280;52163;52.212;-1.002;2022-11-20T05:12:46;99558.19;;;6.45;95.42
62952;BME280;52163;52.212;-1.002;2022-11-20T05:15:12;99550.20;;;6.46;95.38
62952;BME280;52163;52.212;-1.002;2022-11-20T05:17:37;99546.59;;;6.48;95.55
62952;BME280;52163;52.212;-1.002;2022-11-20T05:20:02;99541.02;;;6.50;95.69
62952;BME280;52163;52.212;-1.002;2022-11-20T05:22:28;99548.98;;;6.52;95.72
62952;BME280;52163;52.212;-1.002;2022-11-20T05:24:53;99556.92;;;6.51;95.77
62952;BME280;52163;52.212;-1.002;2022-11-20T05:27:18;99559.58;;;6.51;95.76
62952;BME280;52163;52.212;-1.002;2022-11-20T05:29:44;99557.73;;;6.53;95.98
62952;BME280;52163;52.212;-1.002;2022-11-20T05:32:09;99555.64;;;6.56;96.13
62952;BME280;52163;52.212;-1.002;2022-11-20T05:34:35;99553.96;;;6.57;96.09
62952;BME280;52163;52.212;-1.002;2022-11-20T05:37:01;99560.67;;;6.60;96.29
62952;BME280;52163;52.212;-1.002;2022-11-20T05:39:27;99559.00;;;6.61;96.35
62952;BME280;52163;52.212;-1.002;2022-11-20T05:41:52;99559.60;;;6.63;96.60
62952;BME280;52163;52.212;-1.002;2022-11-20T05:44:38;99547.24;;;6.64;96.72
62952;BME280;52163;52.212;-1.002;2022-11-20T05:47:03;99541.43;;;6.64;96.79
62952;BME280;52163;52.212;-1.002;2022-11-20T05:49:29;99537.70;;;6.65;96.79
62952;BME280;52163;52.212;-1.002;2022-11-20T05:51:54;99538.37;;;6.66;96.95
62952;BME280;52163;52.212;-1.002;2022-11-20T05:54:20;99541.85;;;6.66;96.94
62952;BME280;52163;52.212;-1.002;2022-11-20T05:56:45;99546.80;;;6.66;97.03
62952;BME280;52163;52.212;-1.002;2022-11-20T05:59:10;99548.31;;;6.67;97.18
62952;BME280;52163;52.212;-1.002;2022-11-20T06:01:36;99545.83;;;6.67;97.20
62952;BME280;52163;52.212;-1.002;2022-11-20T06:04:01;99546.70;;;6.67;97.23
62952;BME280;52163;52.212;-1.002;2022-11-20T06:06:27;99550.44;;;6.70;97.48
62952;BME280;52163;52.212;-1.002;2022-11-20T06:08:52;99544.30;;;6.72;97.54
62952;BME280;52163;52.212;-1.002;2022-11-20T06:11:19;99544.98;;;6.76;97.51
62952;BME280;52163;52.212;-1.002;2022-11-20T06:13:45;99543.33;;;6.80;97.83
62952;BME280;52163;52.212;-1.002;2022-11-20T06:16:12;99544.86;;;6.83;97.75
62952;BME280;52163;52.212;-1.002;2022-11-20T06:18:38;99536.63;;;6.86;97.80
62952;BME280;52163;52.212;-1.002;2022-11-20T06:21:12;99533.15;;;6.89;97.92
62952;BME280;52163;52.212;-1.002;2022-11-20T06:23:38;99533.66;;;6.89;97.72
62952;BME280;52163;52.212;-1.002;2022-11-20T06:26:12;99528.05;;;6.89;97.49
62952;BME280;52163;52.212;-1.002;2022-11-20T06:28:38;99525.55;;;6.89;97.53
62952;BME280;52163;52.212;-1.002;2022-11-20T06:31:05;99524.80;;;6.87;97.61
62952;BME280;52163;52.212;-1.002;2022-11-20T06:33:30;99522.98;;;6.85;97.63
62952;BME280;52163;52.212;-1.002;2022-11-20T06:36:00;99517.75;;;6.85;97.93
62952;BME280;52163;52.212;-1.002;2022-11-20T06:38:26;99515.61;;;6.82;98.01
62952;BME280;52163;52.212;-1.002;2022-11-20T06:40:52;99516.20;;;6.81;97.82
62952;BME280;52163;52.212;-1.002;2022-11-20T06:43:17;99512.73;;;6.78;97.74
62952;BME280;52163;52.212;-1.002;2022-11-20T06:45:43;99517.32;;;6.74;97.67
62952;BME280;52163;52.212;-1.002;2022-11-20T06:48:09;99519.11;;;6.74;97.94
62952;BME280;52163;52.212;-1.002;2022-11-20T06:50:36;99518.38;;;6.71;97.86
62952;BME280;52163;52.212;-1.002;2022-11-20T06:53:02;99517.98;;;6.69;97.90
62952;BME280;52163;52.212;-1.002;2022-11-20T06:55:29;99514.38;;;6.68;98.08
62952;BME280;52163;52.212;-1.002;2022-11-20T06:57:54;99519.47;;;6.65;97.84
62952;BME280;52163;52.212;-1.002;2022-11-20T07:00:19;99517.71;;;6.62;97.81
62952;BME280;52163;52.212;-1.002;2022-11-20T07:02:45;99512.84;;;6.61;98.00
62952;BME280;52163;52.212;-1.002;2022-11-20T07:05:10;99514.90;;;6.59;97.75
62952;BME280;52163;52.212;-1.002;2022-11-20T07:07:36;99515.78;;;6.56;97.71
62952;BME280;52163;52.212;-1.002;2022-11-20T07:10:01;99518.95;;;6.53;97.80
62952;BME280;52163;52.212;-1.002;2022-11-20T07:12:26;99519.52;;;6.49;97.84
62952;BME280;52163;52.212;-1.002;2022-11-20T07:14:52;99516.58;;;6.45;98.05
62952;BME280;52163;52.212;-1.002;2022-11-20T07:17:17;99523.23;;;6.43;98.14
62952;BME280;52163;52.212;-1.002;2022-11-20T07:19:43;99532.05;;;6.39;98.10
62952;BME280;52163;52.212;-1.002;2022-11-20T07:22:08;99532.41;;;6.35;98.15
62952;BME280;52163;52.212;-1.002;2022-11-20T07:24:34;99533.74;;;6.33;98.30
62952;BME280;52163;52.212;-1.002;2022-11-20T07:27:00;99540.11;;;6.32;98.35
62952;BME280;52163;52.212;-1.002;2022-11-20T07:29:25;99541.42;;;6.34;98.67
62952;BME280;52163;52.212;-1.002;2022-11-20T07:31:51;99538.17;;;6.33;98.61
62952;BME280;52163;52.212;-1.002;2022-11-20T07:34:16;99540.30;;;6.32;98.64
62952;BME280;52163;52.212;-1.002;2022-11-20T07:36:41;99540.06;;;6.31;98.48
62952;BME280;52163;52.212;-1.002;2022-11-20T07:39:07;99541.02;;;6.30;98.47
62952;BME280;52163;52.212;-1.002;2022-11-20T07:41:32;99538.73;;;6.26;98.39
62952;BME280;52163;52.212;-1.002;2022-11-20T07:43:58;99540.73;;;6.22;98.11
62952;BME280;52163;52.212;-1.002;2022-11-20T07:46:23;99539.34;;;6.19;98.15
62952;BME280;52163;52.212;-1.002;2022-11-20T07:48:49;99539.26;;;6.20;98.58
62952;BME280;52163;52.212;-1.002;2022-11-20T07:51:14;99541.27;;;6.22;98.83
62952;BME280;52163;52.212;-1.002;2022-11-20T07:53:39;99544.31;;;6.21;98.62
62952;BME280;52163;52.212;-1.002;2022-11-20T07:56:05;99543.28;;;6.20;98.56
62952;BME280;52163;52.212;-1.002;2022-11-20T07:58:31;99548.71;;;6.20;98.40
62952;BME280;52163;52.212;-1.002;2022-11-20T08:01:03;99555.00;;;6.21;98.38
62952;BME280;52163;52.212;-1.002;2022-11-20T08:03:29;99561.75;;;6.25;98.65
62952;BME280;52163;52.212;-1.002;2022-11-20T08:05:54;99566.38;;;6.31;98.93
62952;BME280;52163;52.212;-1.002;2022-11-20T08:08:23;99569.81;;;6.35;98.85
62952;BME280;52163;52.212;-1.002;2022-11-20T08:10:48;99571.05;;;6.38;98.87
62952;BME280;52163;52.212;-1.002;2022-11-20T08:13:14;99574.73;;;6.41;98.67
62952;BME280;52163;52.212;-1.002;2022-11-20T08:15:58;99576.67;;;6.44;98.52
62952;BME280;52163;52.212;-1.002;2022-11-20T08:18:23;99577.05;;;6.46;98.35
62952;BME280;52163;52.212;-1.002;2022-11-20T08:20:49;99580.14;;;6.51;98.31
62952;BME280;52163;52.212;-1.002;2022-11-20T08:23:14;99580.89;;;6.56;98.40
62952;BME280;52163;52.212;-1.002;2022-11-20T08:25:39;99575.44;;;6.62;98.35
62952;BME280;52163;52.212;-1.002;2022-11-20T08:28:08;99578.05;;;6.68;98.18
62952;BME280;52163;52.212;-1.002;2022-11-20T08:30:34;99578.11;;;6.73;98.10
62952;BME280;52163;52.212;-1.002;2022-11-20T08:33:05;99582.05;;;6.78;97.88
62952;BME280;52163;52.212;-1.002;2022-11-20T08:35:35;99579.64;;;6.80;97.47
62952;BME280;52163;52.212;-1.002;2022-11-20T08:38:02;99580.98;;;6.81;97.37
62952;BME280;52163;52.212;-1.002;2022-11-20T08:40:28;99580.16;;;6.83;96.92
62952;BME280;52163;52.212;-1.002;2022-11-20T08:42:54;99577.02;;;6.86;96.90
62952;BME280;52163;52.212;-1.002;2022-11-20T08:45:19;99573.94;;;6.90;96.93
62952;BME280;52163;52.212;-1.002;2022-11-20T08:47:45;99572.31;;;6.94;97.07
62952;BME280;52163;52.212;-1.002;2022-11-20T08:50:12;99574.16;;;6.98;96.87
62952;BME280;52163;52.212;-1.002;2022-11-20T08:52:38;99571.13;;;7.03;96.78
62952;BME280;52163;52.212;-1.002;2022-11-20T08:55:05;99571.06;;;7.07;96.54
62952;BME280;52163;52.212;-1.002;2022-11-20T08:57:32;99571.92;;;7.13;96.32
62952;BME280;52163;52.212;-1.002;2022-11-20T08:59:58;99571.84;;;7.20;96.28
62952;BME280;52163;52.212;-1.002;2022-11-20T09:02:24;99578.23;;;7.27;95.95
62952;BME280;52163;52.212;-1.002;2022-11-20T09:04:49;99579.98;;;7.36;96.00
62952;BME280;52163;52.212;-1.002;2022-11-20T09:07:15;99581.56;;;7.45;96.00
62952;BME280;52163;52.212;-1.002;2022-11-20T09:09:40;99580.92;;;7.52;96.00
62952;BME280;52163;52.212;-1.002;2022-11-20T09:12:05;99577.05;;;7.58;95.54
62952;BME280;52163;52.212;-1.002;2022-11-20T09:14:31;99582.59;;;7.62;95.08
62952;BME280;52163;52.212;-1.002;2022-11-20T09:16:56;99581.25;;;7.67;95.07
62952;BME280;52163;52.212;-1.002;2022-11-20T09:19:23;99583.80;;;7.71;94.96
62952;BME280;52163;52.212;-1.002;2022-11-20T09:21:49;99588.13;;;7.75;94.65
62952;BME280;52163;52.212;-1.002;2022-11-20T09:24:14;99588.70;;;7.77;94.45
62952;BME280;52163;52.212;-1.002;2022-11-20T09:26:39;99591.52;;;7.77;94.21
62952;BME280;52163;52.212;-1.002;2022-11-20T09:29:05;99592.61;;;7.76;94.12
62952;BME280;52163;52.212;-1.002;2022-11-20T09:31:30;99591.13;;;7.75;93.69
62952;BME280;52163;52.212;-1.002;2022-11-20T09:33:56;99589.33;;;7.73;93.54
62952;BME280;52163;52.212;-1.002;2022-11-20T09:36:21;99594.13;;;7.72;93.56
62952;BME280;52163;52.212;-1.002;2022-11-20T09:38:47;99591.47;;;7.73;93.44
62952;BME280;52163;52.212;-1.002;2022-11-20T09:55:09;99588.79;;;8.06;92.05
62952;BME280;52163;52.212;-1.002;2022-11-20T09:57:37;99585.36;;;8.16;91.76
62952;BME280;52163;52.212;-1.002;2022-11-20T10:00:08;99581.98;;;8.25;91.45
62952;BME280;52163;52.212;-1.002;2022-11-20T10:02:55;99585.54;;;8.35;91.37
62952;BME280;52163;52.212;-1.002;2022-11-20T10:05:31;99579.17;;;8.43;91.37
62952;BME280;52163;52.212;-1.002;2022-11-20T10:08:22;99571.89;;;8.47;90.92
62952;BME280;52163;52.212;-1.002;2022-11-20T10:10:53;99578.69;;;8.51;90.62
62952;BME280;52163;52.212;-1.002;2022-11-20T10:29:18;99572.47;;;9.00;89.32
62952;BME280;52163;52.212;-1.002;2022-11-20T10:31:55;99573.90;;;9.07;88.48
62952;BME280;52163;52.212;-1.002;2022-11-20T10:34:26;99568.60;;;9.14;87.93
62952;BME280;52163;52.212;-1.002;2022-11-20T10:36:58;99567.40;;;9.22;87.34
62952;BME280;52163;52.212;-1.002;2022-11-20T10:41:54;99572.11;;;9.30;86.92
62952;BME280;52163;52.212;-1.002;2022-11-20T10:44:27;99574.36;;;9.34;86.80
62952;BME280;52163;52.212;-1.002;2022-11-20T10:47:16;99574.40;;;9.30;85.87
62952;BME280;52163;52.212;-1.002;2022-11-20T10:49:45;99577.92;;;9.25;85.69
62952;BME280;52163;52.212;-1.002;2022-11-20T11:00:33;99581.60;;;8.95;85.50
62952;BME280;52163;52.212;-1.002;2022-11-20T11:02:58;99584.44;;;8.92;85.21
62952;BME280;52163;52.212;-1.002;2022-11-20T11:05:36;99583.29;;;8.88;85.73
62952;BME280;52163;52.212;-1.002;2022-11-20T11:08:09;99578.35;;;8.85;85.66
62952;BME280;52163;52.212;-1.002;2022-11-20T11:10:47;99573.92;;;8.83;85.55
62952;BME280;52163;52.212;-1.002;2022-11-20T11:13:21;99576.13;;;8.79;85.25
62952;BME280;52163;52.212;-1.002;2022-11-20T11:15:49;99579.78;;;8.77;85.16
62952;BME280;52163;52.212;-1.002;2022-11-20T11:20:50;99588.59;;;8.77;85.19
62952;BME280;52163;52.212;-1.002;2022-11-20T11:25:58;99591.55;;;8.80;85.30
62952;BME280;52163;52.212;-1.002;2022-11-20T11:28:25;99590.29;;;8.81;85.19
62952;BME280;52163;52.212;-1.002;2022-11-20T11:30:53;99597.63;;;8.82;84.80
62952;BME280;52163;52.212;-1.002;2022-11-20T11:33:30;99602.41;;;8.84;84.76
62952;BME280;52163;52.212;-1.002;2022-11-20T11:35:57;99597.30;;;8.89;84.50
62952;BME280;52163;52.212;-1.002;2022-11-20T11:38:43;99596.05;;;8.95;83.97
62952;BME280;52163;52.212;-1.002;2022-11-20T11:41:19;99596.58;;;8.97;83.96
62952;BME280;52163;52.212;-1.002;2022-11-20T11:43:56;99601.59;;;8.98;84.00
62952;BME280;52163;52.212;-1.002;2022-11-20T11:46:50;99599.09;;;8.99;83.98
62952;BME280;52163;52.212;-1.002;2022-11-20T11:49:19;99593.98;;;8.99;83.89
62952;BME280;52163;52.212;-1.002;2022-11-20T11:52:04;99588.42;;;8.95;83.56
62952;BME280;52163;52.212;-1.002;2022-11-20T11:54:43;99586.20;;;8.94;83.39
62952;BME280;52163;52.212;-1.002;2022-11-20T12:05:02;99583.67;;;9.01;82.88
62952;BME280;52163;52.212;-1.002;2022-11-20T12:07:47;99581.92;;;9.03;82.68
62952;BME280;52163;52.212;-1.002;2022-11-20T12:10:21;99577.45;;;9.04;82.12
62952;BME280;52163;52.212;-1.002;2022-11-20T12:12:52;99583.05;;;9.05;81.49
62952;BME280;52163;52.212;-1.002;2022-11-20T12:15:26;99578.38;;;9.06;81.14
62952;BME280;52163;52.212;-1.002;2022-11-20T12:17:53;99574.73;;;9.08;81.06
62952;BME280;52163;52.212;-1.002;2022-11-20T12:20:19;99581.95;;;9.08;80.62
62952;BME280;52163;52.212;-1.002;2022-11-20T12:22:56;99585.88;;;9.07;80.33
62952;BME280;52163;52.212;-1.002;2022-11-20T12:25:35;99582.17;;;9.07;80.36
62952;BME280;52163;52.212;-1.002;2022-11-20T12:30:53;99576.33;;;9.05;80.52
62952;BME280;52163;52.212;-1.002;2022-11-20T12:36:27;99576.84;;;9.08;80.03
62952;BME280;52163;52.212;-1.002;2022-11-20T12:39:24;99589.75;;;9.12;79.71
62952;BME280;52163;52.212;-1.002;2022-11-20T13:05:19;99585.61;;;9.42;78.36
62952;BME280;52163;52.212;-1.002;2022-11-20T13:07:47;99590.91;;;9.44;78.31
62952;BME280;52163;52.212;-1.002;2022-11-20T13:10:29;99585.77;;;9.44;78.43
62952;BME280;52163;52.212;-1.002;2022-11-20T13:16:04;99576.89;;;9.45;78.73
62952;BME280;52163;52.212;-1.002;2022-11-20T13:18:39;99578.48;;;9.46;78.41
62952;BME280;52163;52.212;-1.002;2022-11-20T13:21:22;99583.32;;;9.44;78.23
62952;BME280;52163;52.212;-1.002;2022-11-20T13:23:48;99583.64;;;9.44;77.92
62952;BME280;52163;52.212;-1.002;2022-11-20T13:28:41;99582.16;;;9.43;77.37
62952;BME280;52163;52.212;-1.002;2022-11-20T13:31:33;99585.20;;;9.45;77.50
62952;BME280;52163;52.212;-1.002;2022-11-20T13:34:02;99584.52;;;9.50;77.35
62952;BME280;52163;52.212;-1.002;2022-11-20T13:36:29;99585.25;;;9.54;77.74
62952;BME280;52163;52.212;-1.002;2022-11-20T13:38:58;99585.63;;;9.58;77.66
62952;BME280;52163;52.212;-1.002;2022-11-20T13:41:35;99581.17;;;9.59;77.66
62952;BME280;52163;52.212;-1.002;2022-11-20T13:44:22;99577.54;;;9.58;77.32
62952;BME280;52163;52.212;-1.002;2022-11-20T13:46:49;99577.04;;;9.58;77.45
62952;BME280;52163;52.212;-1.002;2022-11-20T13:49:31;99566.36;;;9.57;77.44
62952;BME280;52163;52.212;-1.002;2022-11-20T13:52:08;99560.06;;;9.59;77.73
62952;BME280;52163;52.212;-1.002;2022-11-20T13:57:41;99550.72;;;9.62;77.69
62952;BME280;52163;52.212;-1.002;2022-11-20T14:00:14;99547.89;;;9.62;77.69
62952;BME280;52163;52.212;-1.002;2022-11-20T14:02:40;99545.29;;;9.61;77.71
62952;BME280;52163;52.212;-1.002;2022-11-20T14:05:23;99544.31;;;9.60;77.70
62952;BME280;52163;52.212;-1.002;2022-11-20T14:07:50;99546.45;;;9.54;77.99
62952;BME280;52163;52.212;-1.002;2022-11-20T14:10:23;99544.81;;;9.48;77.95
62952;BME280;52163;52.212;-1.002;2022-11-20T14:12:49;99554.42;;;9.41;78.46
62952;BME280;52163;52.212;-1.002;2022-11-20T14:17:53;99560.30;;;9.38;78.47
62952;BME280;52163;52.212;-1.002;2022-11-20T14:20:18;99555.25;;;9.39;78.80
62952;BME280;52163;52.212;-1.002;2022-11-20T14:22:52;99555.46;;;9.42;79.00
62952;BME280;52163;52.212;-1.002;2022-11-20T14:27:54;99553.76;;;9.43;78.96
62952;BME280;52163;52.212;-1.002;2022-11-20T14:30:23;99553.16;;;9.44;78.85
62952;BME280;52163;52.212;-1.002;2022-11-20T14:32:51;99559.73;;;9.44;79.06
62952;BME280;52163;52.212;-1.002;2022-11-20T14:35:29;99553.48;;;9.42;79.29
62952;BME280;52163;52.212;-1.002;2022-11-20T14:37:56;99554.48;;;9.43;79.58
62952;BME280;52163;52.212;-1.002;2022-11-20T14:40:33;99555.11;;;9.44;79.96
62952;BME280;52163;52.212;-1.002;2022-11-20T14:43:22;99545.85;;;9.46;80.31
62952;BME280;52163;52.212;-1.002;2022-11-20T14:45:59;99544.66;;;9.50;80.73
62952;BME280;52163;52.212;-1.002;2022-11-20T14:48:32;99539.63;;;9.56;80.67
62952;BME280;52163;52.212;-1.002;2022-11-20T14:50:59;99539.76;;;9.57;80.43
62952;BME280;52163;52.212;-1.002;2022-11-20T14:53:25;99538.60;;;9.53;80.02
62952;BME280;52163;52.212;-1.002;2022-11-20T14:55:56;99536.83;;;9.51;80.12